createdAt,value
2017-12-29T00:00:16.844Z,992.15
2017-12-29T00:01:16.856Z,992.19
2017-12-29T00:02:16.865Z,992.17
2017-12-29T00:03:16.874Z,992.19
2017-12-29T00:04:16.886Z,992.23
2017-12-29T00:05:16.898Z,992.24
2017-12-29T00:06:16.906Z,992.25
2017-12-29T00:07:16.916Z,992.23
2017-12-29T00:08:16.925Z,992.24
2017-12-29T00:09:16.936Z,992.23
2017-12-29T00:10:16.947Z,992.22
2017-12-29T00:11:16.957Z,992.22
2017-12-29T00:12:16.967Z,992.27
2017-12-29T00:13:16.977Z,992.3
2017-12-29T00:14:16.988Z,992.25
2017-12-29T00:15:16.998Z,992.27
2017-12-29T00:16:17.008Z,992.29
2017-12-29T00:17:17.018Z,992.24
2017-12-29T00:18:17.039Z,992.26
2017-12-29T00:19:17.038Z,992.23
2017-12-29T00:20:17.052Z,992.24
2017-12-29T00:21:17.059Z,992.27
2017-12-29T00:22:17.067Z,992.26
2017-12-29T00:23:17.078Z,992.22
2017-12-29T00:24:17.088Z,992.23
2017-12-29T00:25:17.100Z,992.24
2017-12-29T00:26:17.108Z,992.27
2017-12-29T00:27:17.119Z,992.25
2017-12-29T00:28:17.129Z,992.31
2017-12-29T00:29:17.139Z,992.32
2017-12-29T00:30:17.151Z,992.28
2017-12-29T00:31:17.160Z,992.28
2017-12-29T00:32:17.172Z,992.28
2017-12-29T00:33:17.179Z,992.29
2017-12-29T00:34:17.188Z,992.26
2017-12-29T00:35:17.200Z,992.27
2017-12-29T00:36:17.209Z,992.29
2017-12-29T00:37:17.220Z,992.3
2017-12-29T00:38:17.230Z,992.26
2017-12-29T00:39:17.240Z,992.27
2017-12-29T00:40:17.250Z,992.28
2017-12-29T00:41:17.260Z,992.34
2017-12-29T00:42:17.271Z,992.35
2017-12-29T00:43:17.281Z,992.32
2017-12-29T00:44:17.293Z,992.34
2017-12-29T00:45:17.301Z,992.36
2017-12-29T00:46:17.313Z,992.31
2017-12-29T00:47:17.322Z,992.34
2017-12-29T00:48:17.382Z,992.36
2017-12-29T00:49:17.341Z,992.41
2017-12-29T00:50:17.353Z,992.32
2017-12-29T00:51:17.363Z,992.41
2017-12-29T00:52:17.374Z,992.47
2017-12-29T00:53:17.383Z,992.49
2017-12-29T00:54:17.392Z,992.47
2017-12-29T00:55:17.402Z,992.49
2017-12-29T00:56:17.413Z,992.55
2017-12-29T00:57:17.424Z,992.6
2017-12-29T00:58:17.432Z,992.59
2017-12-29T00:59:17.443Z,992.64
2017-12-29T01:00:17.454Z,992.63
2017-12-29T01:01:17.463Z,992.65
2017-12-29T01:02:17.473Z,992.65
2017-12-29T01:03:17.485Z,992.67
2017-12-29T01:04:17.494Z,992.68
2017-12-29T01:05:17.503Z,992.66
2017-12-29T01:06:17.513Z,992.67
2017-12-29T01:07:17.522Z,992.66
2017-12-29T01:08:17.536Z,992.67
2017-12-29T01:09:17.543Z,992.73
2017-12-29T01:10:17.553Z,992.76
2017-12-29T01:11:17.563Z,992.83
2017-12-29T01:12:17.581Z,992.8
2017-12-29T01:13:17.588Z,992.82
2017-12-29T01:14:17.593Z,992.82
2017-12-29T01:15:17.603Z,992.84
2017-12-29T01:16:17.613Z,992.85
2017-12-29T01:17:17.624Z,992.83
2017-12-29T01:18:17.633Z,992.81
2017-12-29T01:19:17.645Z,992.87
2017-12-29T01:20:17.653Z,992.85
2017-12-29T01:21:17.663Z,992.83
2017-12-29T01:22:17.675Z,992.82
2017-12-29T01:23:17.685Z,992.89
2017-12-29T01:24:17.692Z,992.86
2017-12-29T01:25:17.704Z,992.89
2017-12-29T01:26:17.716Z,992.91
2017-12-29T01:27:17.723Z,992.9
2017-12-29T01:28:17.734Z,992.96
2017-12-29T01:29:17.743Z,992.93
2017-12-29T01:30:17.756Z,992.96
2017-12-29T01:31:17.767Z,992.94
2017-12-29T01:32:17.774Z,992.99
2017-12-29T01:33:17.784Z,992.94
2017-12-29T01:34:17.795Z,992.94
2017-12-29T01:35:17.803Z,992.97
2017-12-29T01:36:17.815Z,992.97
2017-12-29T01:37:17.823Z,993
2017-12-29T01:38:17.833Z,992.97
2017-12-29T01:39:17.845Z,992.99
2017-12-29T01:40:17.854Z,992.99
2017-12-29T01:41:17.863Z,993
2017-12-29T01:42:17.875Z,992.96
2017-12-29T01:43:17.884Z,993
2017-12-29T01:44:17.895Z,992.97
2017-12-29T01:45:17.904Z,992.97
2017-12-29T01:46:17.914Z,993.02
2017-12-29T01:47:17.924Z,993.03
2017-12-29T01:48:17.934Z,993.03
2017-12-29T01:49:17.943Z,993.06
2017-12-29T01:50:17.953Z,993.06
2017-12-29T01:51:17.964Z,993.06
2017-12-29T01:52:17.977Z,993.13
2017-12-29T01:53:17.988Z,993.15
2017-12-29T01:54:17.994Z,993.14
2017-12-29T01:55:18.004Z,993.16
2017-12-29T01:56:18.015Z,993.14
2017-12-29T01:57:18.025Z,993.23
2017-12-29T01:58:18.035Z,993.21
2017-12-29T01:59:18.045Z,993.19
2017-12-29T02:00:18.055Z,993.2
2017-12-29T02:01:18.065Z,993.23
2017-12-29T02:02:18.075Z,993.22
2017-12-29T02:03:18.086Z,993.21
2017-12-29T02:04:18.095Z,993.2
2017-12-29T02:05:18.105Z,993.21
2017-12-29T02:06:18.116Z,993.22
2017-12-29T02:07:18.126Z,993.25
2017-12-29T02:08:18.136Z,993.23
2017-12-29T02:09:18.145Z,993.24
2017-12-29T02:10:18.155Z,993.28
2017-12-29T02:11:18.166Z,993.31
2017-12-29T02:12:18.176Z,993.32
2017-12-29T02:13:18.186Z,993.33
2017-12-29T02:14:18.197Z,993.36
2017-12-29T02:15:18.206Z,993.36
2017-12-29T02:16:18.216Z,993.32
2017-12-29T02:17:18.229Z,993.37
2017-12-29T02:18:18.237Z,993.39
2017-12-29T02:19:18.248Z,993.38
2017-12-29T02:20:18.258Z,993.4
2017-12-29T02:21:18.269Z,993.41
2017-12-29T02:22:18.279Z,993.46
2017-12-29T02:23:18.289Z,993.48
2017-12-29T02:24:18.308Z,993.51
2017-12-29T02:25:18.310Z,993.49
2017-12-29T02:26:18.370Z,993.49
2017-12-29T02:27:18.329Z,993.49
2017-12-29T02:28:18.340Z,993.46
2017-12-29T02:29:18.350Z,993.45
2017-12-29T02:30:18.361Z,993.44
2017-12-29T02:31:18.370Z,993.43
2017-12-29T02:32:18.382Z,993.46
2017-12-29T02:33:18.392Z,993.49
2017-12-29T02:34:18.407Z,993.5
2017-12-29T02:35:18.417Z,993.53
2017-12-29T02:36:18.422Z,993.5
2017-12-29T02:37:18.436Z,993.46
2017-12-29T02:38:18.442Z,993.49
2017-12-29T02:39:18.453Z,993.5
2017-12-29T02:40:18.463Z,993.51
2017-12-29T02:41:18.474Z,993.5
2017-12-29T02:42:18.484Z,993.5
2017-12-29T02:43:18.495Z,993.55
2017-12-29T02:44:18.513Z,993.52
2017-12-29T02:45:18.514Z,993.54
2017-12-29T02:46:18.527Z,993.51
2017-12-29T02:47:18.536Z,993.48
2017-12-29T02:48:18.544Z,993.47
2017-12-29T02:49:18.556Z,993.53
2017-12-29T02:50:18.567Z,993.56
2017-12-29T02:51:18.579Z,993.53
2017-12-29T02:52:18.587Z,993.58
2017-12-29T02:53:18.597Z,993.55
2017-12-29T02:54:18.608Z,993.59
2017-12-29T02:55:18.622Z,993.54
2017-12-29T02:56:18.628Z,993.55
2017-12-29T02:57:18.640Z,993.57
2017-12-29T02:58:18.650Z,993.54
2017-12-29T02:59:18.660Z,993.5
2017-12-29T03:00:18.669Z,993.43
2017-12-29T03:01:18.682Z,993.51
2017-12-29T03:02:18.689Z,993.47
2017-12-29T03:03:18.700Z,993.49
2017-12-29T03:04:18.710Z,993.47
2017-12-29T03:05:18.722Z,993.44
2017-12-29T03:06:18.730Z,993.45
2017-12-29T03:07:18.741Z,993.48
2017-12-29T03:08:18.752Z,993.5
2017-12-29T03:09:18.768Z,993.57
2017-12-29T03:10:18.773Z,993.55
2017-12-29T03:11:18.783Z,993.56
2017-12-29T03:12:18.793Z,993.57
2017-12-29T03:13:18.802Z,993.53
2017-12-29T03:14:18.813Z,993.58
2017-12-29T03:15:18.825Z,993.57
2017-12-29T03:16:18.834Z,993.58
2017-12-29T03:17:18.844Z,993.55
2017-12-29T03:18:18.858Z,993.59
2017-12-29T03:19:18.865Z,993.59
2017-12-29T03:20:18.876Z,993.61
2017-12-29T03:21:18.887Z,993.58
2017-12-29T03:22:18.898Z,993.63
2017-12-29T03:23:18.906Z,993.57
2017-12-29T03:24:18.916Z,993.59
2017-12-29T03:25:18.927Z,993.62
2017-12-29T03:26:18.937Z,993.63
2017-12-29T03:27:18.948Z,993.61
2017-12-29T03:28:18.959Z,993.62
2017-12-29T03:29:18.967Z,993.62
2017-12-29T03:30:18.979Z,993.67
2017-12-29T03:31:18.989Z,993.7
2017-12-29T03:32:18.998Z,993.66
2017-12-29T03:33:19.009Z,993.65
2017-12-29T03:34:19.019Z,993.65
2017-12-29T03:35:19.029Z,993.68
2017-12-29T03:36:19.039Z,993.68
2017-12-29T03:37:19.051Z,993.72
2017-12-29T03:38:19.061Z,993.75
2017-12-29T03:39:19.070Z,993.76
2017-12-29T03:40:19.081Z,993.78
2017-12-29T03:41:19.092Z,993.8
2017-12-29T03:42:19.102Z,993.78
2017-12-29T03:43:19.111Z,993.8
2017-12-29T03:44:19.127Z,993.85
2017-12-29T03:45:19.134Z,993.9
2017-12-29T03:46:19.142Z,993.93
2017-12-29T03:47:19.153Z,993.99
2017-12-29T03:48:19.163Z,993.99
2017-12-29T03:49:19.173Z,994
2017-12-29T03:50:19.233Z,994
2017-12-29T03:51:19.193Z,993.99
2017-12-29T03:52:19.205Z,994.02
2017-12-29T03:53:19.214Z,994.03
2017-12-29T03:54:19.226Z,994.03
2017-12-29T03:55:19.285Z,994.06
2017-12-29T03:56:19.246Z,994.03
2017-12-29T03:57:19.258Z,994.04
2017-12-29T03:58:19.266Z,994.09
2017-12-29T03:59:19.277Z,994.06
2017-12-29T04:00:19.287Z,994.08
2017-12-29T04:01:19.304Z,994.08
2017-12-29T04:02:19.307Z,994.05
2017-12-29T04:03:19.321Z,994.05
2017-12-29T04:04:19.327Z,994.12
2017-12-29T04:05:19.337Z,994.08
2017-12-29T04:06:19.348Z,994.09
2017-12-29T04:07:19.364Z,994.07
2017-12-29T04:08:19.368Z,994.11
2017-12-29T04:09:19.378Z,994.1
2017-12-29T04:10:19.391Z,994.11
2017-12-29T04:11:19.400Z,994.08
2017-12-29T04:12:19.409Z,994.13
2017-12-29T04:13:19.421Z,994.11
2017-12-29T04:14:19.433Z,994.13
2017-12-29T04:15:19.440Z,994.16
2017-12-29T04:16:19.456Z,994.2
2017-12-29T04:17:19.461Z,994.17
2017-12-29T04:18:19.470Z,994.14
2017-12-29T04:19:19.480Z,994.18
2017-12-29T04:20:19.489Z,994.2
2017-12-29T04:21:19.501Z,994.22
2017-12-29T04:22:19.512Z,994.19
2017-12-29T04:23:19.521Z,994.17
2017-12-29T04:24:19.534Z,994.17
2017-12-29T04:25:19.542Z,994.14
2017-12-29T04:26:19.552Z,994.17
2017-12-29T04:27:19.563Z,994.2
2017-12-29T04:28:19.574Z,994.21
2017-12-29T04:29:19.584Z,994.24
2017-12-29T04:30:19.594Z,994.22
2017-12-29T04:31:19.603Z,994.21
2017-12-29T04:32:19.616Z,994.2
2017-12-29T04:33:19.625Z,994.23
2017-12-29T04:34:19.633Z,994.28
2017-12-29T04:35:19.644Z,994.26
2017-12-29T04:36:19.655Z,994.25
2017-12-29T04:37:19.664Z,994.25
2017-12-29T04:38:19.674Z,994.29
2017-12-29T04:39:19.688Z,994.25
2017-12-29T04:40:19.696Z,994.29
2017-12-29T04:41:19.705Z,994.3
2017-12-29T04:42:19.717Z,994.32
2017-12-29T04:43:19.726Z,994.32
2017-12-29T04:44:19.736Z,994.36
2017-12-29T04:45:19.746Z,994.4
2017-12-29T04:46:19.757Z,994.41
2017-12-29T04:47:19.775Z,994.38
2017-12-29T04:48:19.776Z,994.47
2017-12-29T04:49:19.786Z,994.44
2017-12-29T04:50:19.799Z,994.42
2017-12-29T04:51:19.808Z,994.43
2017-12-29T04:52:19.819Z,994.48
2017-12-29T04:53:19.828Z,994.51
2017-12-29T04:54:19.839Z,994.51
2017-12-29T04:55:19.851Z,994.53
2017-12-29T04:56:19.864Z,994.55
2017-12-29T04:57:19.871Z,994.55
2017-12-29T04:58:19.881Z,994.54
2017-12-29T04:59:19.889Z,994.53
2017-12-29T05:00:19.900Z,994.6
2017-12-29T05:01:19.911Z,994.54
2017-12-29T05:02:19.921Z,994.53
2017-12-29T05:03:19.930Z,994.53
2017-12-29T05:04:19.942Z,994.52
2017-12-29T05:05:19.951Z,994.57
2017-12-29T05:06:19.962Z,994.52
2017-12-29T05:07:19.972Z,994.52
2017-12-29T05:08:19.984Z,994.49
2017-12-29T05:09:19.992Z,994.56
2017-12-29T05:10:20.005Z,994.52
2017-12-29T05:11:20.015Z,994.52
2017-12-29T05:12:20.024Z,994.54
2017-12-29T05:13:20.034Z,994.56
2017-12-29T05:14:20.044Z,994.59
2017-12-29T05:15:20.054Z,994.58
2017-12-29T05:16:20.065Z,994.6
2017-12-29T05:17:20.077Z,994.63
2017-12-29T05:18:20.083Z,994.63
2017-12-29T05:19:20.095Z,994.68
2017-12-29T05:20:20.105Z,994.66
2017-12-29T05:21:20.115Z,994.65
2017-12-29T05:22:20.126Z,994.68
2017-12-29T05:23:20.136Z,994.68
2017-12-29T05:24:20.172Z,994.7
2017-12-29T05:25:20.158Z,994.71
2017-12-29T05:26:20.167Z,994.73
2017-12-29T05:27:20.179Z,994.75
2017-12-29T05:28:20.189Z,994.73
2017-12-29T05:29:20.198Z,994.78
2017-12-29T05:30:20.215Z,994.76
2017-12-29T05:31:20.220Z,994.8
2017-12-29T05:32:20.230Z,994.78
2017-12-29T05:33:20.239Z,994.8
2017-12-29T05:34:20.252Z,994.83
2017-12-29T05:35:20.263Z,994.85
2017-12-29T05:36:20.271Z,994.84
2017-12-29T05:37:20.280Z,994.81
2017-12-29T05:38:20.295Z,994.78
2017-12-29T05:39:20.303Z,994.81
2017-12-29T05:40:20.312Z,994.81
2017-12-29T05:41:20.324Z,994.85
2017-12-29T05:42:20.333Z,994.83
2017-12-29T05:43:20.342Z,994.87
2017-12-29T05:44:20.353Z,994.82
2017-12-29T05:45:20.364Z,994.81
2017-12-29T05:46:20.374Z,994.82
2017-12-29T05:47:20.384Z,994.82
2017-12-29T05:48:20.394Z,994.81
2017-12-29T05:49:20.412Z,994.84
2017-12-29T05:50:20.414Z,994.8
2017-12-29T05:51:20.428Z,994.81
2017-12-29T05:52:20.443Z,994.83
2017-12-29T05:53:20.447Z,994.8
2017-12-29T05:54:20.456Z,994.8
2017-12-29T05:55:20.467Z,994.79
2017-12-29T05:56:20.477Z,994.83
2017-12-29T05:57:20.495Z,994.8
2017-12-29T05:58:20.497Z,994.83
2017-12-29T05:59:20.508Z,994.82
2017-12-29T06:00:20.517Z,994.82
2017-12-29T06:01:20.528Z,994.81
2017-12-29T06:02:20.538Z,994.85
2017-12-29T06:03:20.550Z,994.89
2017-12-29T06:04:20.561Z,994.85
2017-12-29T06:05:20.619Z,994.88
2017-12-29T06:06:20.580Z,994.88
2017-12-29T06:07:20.709Z,994.89
2017-12-29T06:08:20.601Z,994.87
2017-12-29T06:09:20.610Z,994.9
2017-12-29T06:10:20.650Z,994.89
2017-12-29T06:11:20.683Z,994.91
2017-12-29T06:12:20.641Z,994.93
2017-12-29T06:13:20.657Z,994.93
2017-12-29T06:14:20.665Z,994.96
2017-12-29T06:15:20.673Z,994.92
2017-12-29T06:16:20.734Z,994.91
2017-12-29T06:17:20.695Z,994.95
2017-12-29T06:18:20.703Z,994.94
2017-12-29T06:19:20.717Z,995
2017-12-29T06:20:20.725Z,995
2017-12-29T06:21:20.735Z,994.97
2017-12-29T06:22:20.745Z,994.95
2017-12-29T06:23:20.754Z,994.99
2017-12-29T06:24:20.804Z,995.02
2017-12-29T06:25:20.774Z,995.03
2017-12-29T06:26:20.785Z,995.04
2017-12-29T06:27:20.799Z,995
2017-12-29T06:28:20.805Z,995.04
2017-12-29T06:29:20.816Z,995.04
2017-12-29T06:30:20.828Z,995.04
2017-12-29T06:31:20.838Z,995.05
2017-12-29T06:32:20.847Z,995.07
2017-12-29T06:33:20.857Z,995.09
2017-12-29T06:34:20.868Z,995.07
2017-12-29T06:35:20.879Z,995.09
2017-12-29T06:36:20.888Z,995.02
2017-12-29T06:37:20.898Z,995.09
2017-12-29T06:38:20.908Z,995.05
2017-12-29T06:39:20.918Z,995.07
2017-12-29T06:40:20.930Z,995.07
2017-12-29T06:41:20.941Z,995.1
2017-12-29T06:42:20.951Z,995.1
2017-12-29T06:43:20.960Z,995.08
2017-12-29T06:44:20.970Z,995.1
2017-12-29T06:45:20.981Z,995.11
2017-12-29T06:46:20.990Z,995.07
2017-12-29T06:47:21.003Z,995.08
2017-12-29T06:48:21.012Z,995.1
2017-12-29T06:49:21.021Z,995.06
2017-12-29T06:50:21.031Z,995.09
2017-12-29T06:51:21.042Z,995.06
2017-12-29T06:52:21.062Z,995.11
2017-12-29T06:53:21.062Z,995.11
2017-12-29T06:54:21.073Z,995.1
2017-12-29T06:55:21.083Z,995.09
2017-12-29T06:56:21.093Z,995.09
2017-12-29T06:57:21.103Z,995.15
2017-12-29T06:58:21.113Z,995.09
2017-12-29T06:59:21.168Z,995.15
2017-12-29T07:00:21.134Z,995.13
2017-12-29T07:01:21.147Z,995.15
2017-12-29T07:02:21.155Z,995.15
2017-12-29T07:03:21.169Z,995.15
2017-12-29T07:04:21.176Z,995.2
2017-12-29T07:05:21.186Z,995.2
2017-12-29T07:06:21.197Z,995.24
2017-12-29T07:07:21.207Z,995.28
2017-12-29T07:08:21.218Z,995.26
2017-12-29T07:09:21.228Z,995.27
2017-12-29T07:10:21.239Z,995.29
2017-12-29T07:11:21.248Z,995.32
2017-12-29T07:12:21.260Z,995.29
2017-12-29T07:13:21.270Z,995.35
2017-12-29T07:14:21.280Z,995.35
2017-12-29T07:15:21.290Z,995.31
2017-12-29T07:16:21.300Z,995.34
2017-12-29T07:17:21.310Z,995.31
2017-12-29T07:18:21.323Z,995.31
2017-12-29T07:19:21.331Z,995.3
2017-12-29T07:20:21.341Z,995.31
2017-12-29T07:21:21.352Z,995.34
2017-12-29T07:22:21.361Z,995.33
2017-12-29T07:23:21.372Z,995.32
2017-12-29T07:24:21.382Z,995.32
2017-12-29T07:25:21.391Z,995.32
2017-12-29T07:26:21.402Z,995.34
2017-12-29T07:27:21.413Z,995.4
2017-12-29T07:28:21.425Z,995.44
2017-12-29T07:29:21.432Z,995.42
2017-12-29T07:30:21.443Z,995.44
2017-12-29T07:31:21.454Z,995.41
2017-12-29T07:32:21.466Z,995.41
2017-12-29T07:33:21.478Z,995.38
2017-12-29T07:34:21.486Z,995.37
2017-12-29T07:35:21.495Z,995.37
2017-12-29T07:36:21.504Z,995.4
2017-12-29T07:37:21.515Z,995.37
2017-12-29T07:38:21.527Z,995.4
2017-12-29T07:39:21.537Z,995.4
2017-12-29T07:40:21.544Z,995.4
2017-12-29T07:41:21.558Z,995.43
2017-12-29T07:42:21.568Z,995.48
2017-12-29T07:43:21.577Z,995.45
2017-12-29T07:44:21.586Z,995.47
2017-12-29T07:45:21.599Z,995.48
2017-12-29T07:46:21.608Z,995.49
2017-12-29T07:47:21.617Z,995.48
2017-12-29T07:48:21.627Z,995.52
2017-12-29T07:49:21.638Z,995.53
2017-12-29T07:50:21.649Z,995.53
2017-12-29T07:51:21.658Z,995.57
2017-12-29T07:52:21.720Z,995.59
2017-12-29T07:53:21.680Z,995.61
2017-12-29T07:54:21.690Z,995.62
2017-12-29T07:55:21.704Z,995.61
2017-12-29T07:56:21.712Z,995.6
2017-12-29T07:57:21.719Z,995.58
2017-12-29T07:58:21.730Z,995.59
2017-12-29T07:59:21.741Z,995.59
2017-12-29T08:00:21.751Z,995.63
2017-12-29T08:01:21.762Z,995.62
2017-12-29T08:02:21.771Z,995.64
2017-12-29T08:03:21.782Z,995.71
2017-12-29T08:04:21.792Z,995.7
2017-12-29T08:05:21.803Z,995.75
2017-12-29T08:06:21.812Z,995.79
2017-12-29T08:07:21.822Z,995.79
2017-12-29T08:08:21.839Z,995.81
2017-12-29T08:09:21.842Z,995.8
2017-12-29T08:10:21.853Z,995.86
2017-12-29T08:11:21.867Z,995.84
2017-12-29T08:12:21.874Z,995.85
2017-12-29T08:13:21.885Z,995.85
2017-12-29T08:14:21.902Z,995.86
2017-12-29T08:15:21.908Z,995.89
2017-12-29T08:16:21.918Z,995.88
2017-12-29T08:17:21.926Z,995.9
2017-12-29T08:18:21.936Z,995.92
2017-12-29T08:19:21.946Z,995.97
2017-12-29T08:20:21.960Z,995.96
2017-12-29T08:21:21.971Z,995.98
2017-12-29T08:22:21.980Z,996
2017-12-29T08:23:21.988Z,996
2017-12-29T08:24:21.997Z,996.01
2017-12-29T08:25:22.009Z,995.98
2017-12-29T08:26:22.019Z,996.01
2017-12-29T08:27:22.030Z,996
2017-12-29T08:28:22.038Z,996.02
2017-12-29T08:29:22.097Z,996.02
2017-12-29T08:30:22.060Z,996.02
2017-12-29T08:31:22.087Z,996.07
2017-12-29T08:32:22.081Z,996.03
2017-12-29T08:33:22.092Z,996.09
2017-12-29T08:34:22.101Z,996.07
2017-12-29T08:35:22.111Z,996.08
2017-12-29T08:36:22.122Z,996.11
2017-12-29T08:37:22.133Z,996.12
2017-12-29T08:38:22.187Z,996.11
2017-12-29T08:39:22.153Z,996.08
2017-12-29T08:40:22.165Z,996.14
2017-12-29T08:41:22.176Z,996.08
2017-12-29T08:42:22.185Z,996.11
2017-12-29T08:43:22.195Z,996.13
2017-12-29T08:44:22.206Z,996.14
2017-12-29T08:45:22.220Z,996.11
2017-12-29T08:46:22.240Z,996.13
2017-12-29T08:47:22.243Z,996.14
2017-12-29T08:48:22.248Z,996.14
2017-12-29T08:49:22.260Z,996.17
2017-12-29T08:50:22.271Z,996.14
2017-12-29T08:51:22.281Z,996.2
2017-12-29T08:52:22.291Z,996.22
2017-12-29T08:53:22.300Z,996.24
2017-12-29T08:54:22.313Z,996.22
2017-12-29T08:55:22.322Z,996.26
2017-12-29T08:56:22.334Z,996.27
2017-12-29T08:57:22.344Z,996.27
2017-12-29T08:58:22.409Z,996.31
2017-12-29T08:59:22.365Z,996.33
2017-12-29T09:00:22.377Z,996.35
2017-12-29T09:01:22.386Z,996.34
2017-12-29T09:02:22.397Z,996.36
2017-12-29T09:03:22.407Z,996.33
2017-12-29T09:04:22.420Z,996.38
2017-12-29T09:05:22.429Z,996.36
2017-12-29T09:06:22.442Z,996.38
2017-12-29T09:07:22.451Z,996.39
2017-12-29T09:08:22.463Z,996.36
2017-12-29T09:09:22.472Z,996.37
2017-12-29T09:10:22.483Z,996.33
2017-12-29T09:11:22.492Z,996.36
2017-12-29T09:12:22.503Z,996.35
2017-12-29T09:13:22.515Z,996.36
2017-12-29T09:14:22.526Z,996.37
2017-12-29T09:15:22.536Z,996.33
2017-12-29T09:16:22.549Z,996.33
2017-12-29T09:17:22.562Z,996.4
2017-12-29T09:18:22.620Z,996.35
2017-12-29T09:19:22.580Z,996.35
2017-12-29T09:20:22.591Z,996.38
2017-12-29T09:21:22.601Z,996.33
2017-12-29T09:22:22.611Z,996.35
2017-12-29T09:23:22.677Z,996.39
2017-12-29T09:24:22.634Z,996.42
2017-12-29T09:25:22.646Z,996.46
2017-12-29T09:26:22.658Z,996.44
2017-12-29T09:27:22.711Z,996.45
2017-12-29T09:28:22.677Z,996.49
2017-12-29T09:29:22.688Z,996.47
2017-12-29T09:30:22.700Z,996.44
2017-12-29T09:31:22.710Z,996.49
2017-12-29T09:32:22.721Z,996.5
2017-12-29T09:33:22.732Z,996.45
2017-12-29T09:34:22.744Z,996.5
2017-12-29T09:35:22.753Z,996.48
2017-12-29T09:36:22.781Z,996.45
2017-12-29T09:37:22.775Z,996.52
2017-12-29T09:38:22.787Z,996.45
2017-12-29T09:39:22.827Z,996.46
2017-12-29T09:40:22.845Z,996.52
2017-12-29T09:41:22.823Z,996.44
2017-12-29T09:42:22.833Z,996.49
2017-12-29T09:43:22.843Z,996.47
2017-12-29T09:44:22.853Z,996.44
2017-12-29T09:45:22.870Z,996.45
2017-12-29T09:46:22.874Z,996.38
2017-12-29T09:47:22.887Z,996.34
2017-12-29T09:48:22.898Z,996.35
2017-12-29T09:49:22.909Z,996.33
2017-12-29T09:50:22.919Z,996.33
2017-12-29T09:51:22.930Z,996.28
2017-12-29T09:52:22.944Z,996.27
2017-12-29T09:53:22.953Z,996.29
2017-12-29T09:54:22.963Z,996.27
2017-12-29T09:55:22.974Z,996.28
2017-12-29T09:56:22.985Z,996.28
2017-12-29T09:57:22.999Z,996.26
2017-12-29T09:58:23.010Z,996.26
2017-12-29T09:59:23.026Z,996.24
2017-12-29T10:00:23.033Z,996.26
2017-12-29T10:01:23.041Z,996.22
2017-12-29T10:02:23.055Z,996.23
2017-12-29T10:03:23.078Z,996.21
2017-12-29T10:04:23.075Z,996.25
2017-12-29T10:05:23.086Z,996.25
2017-12-29T10:06:23.097Z,996.24
2017-12-29T10:07:23.108Z,996.19
2017-12-29T10:08:23.138Z,996.16
2017-12-29T10:09:23.131Z,996.19
2017-12-29T10:10:23.143Z,996.14
2017-12-29T10:11:23.180Z,996.13
2017-12-29T10:12:23.164Z,996.07
2017-12-29T10:13:23.178Z,996.12
2017-12-29T10:14:23.202Z,996.09
2017-12-29T10:15:23.198Z,996.14
2017-12-29T10:16:23.215Z,996.14
2017-12-29T10:17:23.220Z,996.09
2017-12-29T10:18:23.232Z,996.11
2017-12-29T10:19:23.243Z,996.08
2017-12-29T10:20:23.255Z,996.07
2017-12-29T10:21:23.266Z,996
2017-12-29T10:22:23.276Z,996.02
2017-12-29T10:23:23.289Z,995.95
2017-12-29T10:24:23.299Z,995.95
2017-12-29T10:25:23.312Z,995.87
2017-12-29T10:26:23.325Z,995.92
2017-12-29T10:27:23.336Z,995.88
2017-12-29T10:28:23.343Z,995.88
2017-12-29T10:29:23.355Z,995.92
2017-12-29T10:30:23.367Z,995.91
2017-12-29T10:31:23.378Z,995.89
2017-12-29T10:32:23.389Z,995.94
2017-12-29T10:33:23.400Z,995.92
2017-12-29T10:34:23.411Z,995.93
2017-12-29T10:35:23.424Z,995.94
2017-12-29T10:36:23.433Z,995.9
2017-12-29T10:37:23.450Z,995.89
2017-12-29T10:38:23.455Z,996.01
2017-12-29T10:39:23.466Z,995.89
2017-12-29T10:40:23.479Z,995.88
2017-12-29T10:41:23.491Z,995.92
2017-12-29T10:42:23.503Z,995.95
2017-12-29T10:43:23.515Z,995.92
2017-12-29T10:44:23.527Z,995.87
2017-12-29T10:45:23.536Z,995.9
2017-12-29T10:46:23.544Z,995.82
2017-12-29T10:47:23.562Z,995.83
2017-12-29T10:48:23.567Z,995.73
2017-12-29T10:49:23.580Z,995.73
2017-12-29T10:50:23.590Z,995.73
2017-12-29T10:51:23.609Z,995.71
2017-12-29T10:52:23.613Z,995.62
2017-12-29T10:53:23.625Z,995.59
2017-12-29T10:54:23.639Z,995.57
2017-12-29T10:55:23.646Z,995.56
2017-12-29T10:56:23.658Z,995.49
2017-12-29T10:57:23.669Z,995.58
2017-12-29T10:58:23.680Z,995.55
2017-12-29T10:59:23.692Z,995.5
2017-12-29T11:00:23.702Z,995.43
2017-12-29T11:01:23.758Z,995.5
2017-12-29T11:02:23.728Z,995.55
2017-12-29T11:03:23.736Z,995.5
2017-12-29T11:04:23.800Z,995.51
2017-12-29T11:05:23.759Z,995.49
2017-12-29T11:06:23.769Z,995.51
2017-12-29T11:07:23.781Z,995.57
2017-12-29T11:08:23.791Z,995.52
2017-12-29T11:09:23.852Z,995.47
2017-12-29T11:10:23.815Z,995.51
2017-12-29T11:11:23.826Z,995.52
2017-12-29T11:12:23.836Z,995.51
2017-12-29T11:13:23.848Z,995.51
2017-12-29T11:14:23.911Z,995.45
2017-12-29T11:15:23.870Z,995.46
2017-12-29T11:16:23.881Z,995.37
2017-12-29T11:17:23.894Z,995.46
2017-12-29T11:18:23.918Z,995.44
2017-12-29T11:19:23.917Z,995.4
2017-12-29T11:20:23.927Z,995.5
2017-12-29T11:21:23.938Z,995.45
2017-12-29T11:22:23.951Z,995.43
2017-12-29T11:23:23.960Z,995.35
2017-12-29T11:24:23.972Z,995.4
2017-12-29T11:25:23.983Z,995.35
2017-12-29T11:26:23.994Z,995.44
2017-12-29T11:27:24.006Z,995.39
2017-12-29T11:28:24.016Z,995.37
2017-12-29T11:29:24.030Z,995.36
2017-12-29T11:30:24.039Z,995.39
2017-12-29T11:31:24.052Z,995.39
2017-12-29T11:32:24.063Z,995.43
2017-12-29T11:33:24.074Z,995.4
2017-12-29T11:34:24.085Z,995.37
2017-12-29T11:35:24.098Z,995.37
2017-12-29T11:36:24.153Z,995.4
2017-12-29T11:37:24.164Z,995.42
2017-12-29T11:38:24.128Z,995.35
2017-12-29T11:39:24.141Z,995.41
2017-12-29T11:40:24.151Z,995.46
2017-12-29T11:41:24.162Z,995.4
2017-12-29T11:42:24.177Z,995.42
2017-12-29T11:43:24.185Z,995.36
2017-12-29T11:44:24.197Z,995.35
2017-12-29T11:45:24.209Z,995.31
2017-12-29T11:46:24.219Z,995.28
2017-12-29T11:47:24.234Z,995.3
2017-12-29T11:48:24.242Z,995.27
2017-12-29T11:49:24.255Z,995.32
2017-12-29T11:50:24.268Z,995.26
2017-12-29T11:51:24.280Z,995.24
2017-12-29T11:52:24.287Z,995.2
2017-12-29T11:53:24.299Z,995.27
2017-12-29T11:54:24.311Z,995.17
2017-12-29T11:55:24.322Z,995.26
2017-12-29T11:56:24.333Z,995.21
2017-12-29T11:57:24.345Z,995.21
2017-12-29T11:58:24.358Z,995.05
2017-12-29T11:59:24.371Z,995.29
2017-12-29T12:00:24.378Z,995.26
2017-12-29T12:01:24.391Z,995.25
2017-12-29T12:02:24.402Z,995.29
2017-12-29T12:03:24.418Z,995.23
2017-12-29T12:04:24.423Z,995.24
2017-12-29T12:05:24.435Z,995.23
2017-12-29T12:06:24.447Z,995.23
2017-12-29T12:07:24.457Z,995.26
2017-12-29T12:08:24.471Z,995.21
2017-12-29T12:09:24.482Z,995.21
2017-12-29T12:10:24.492Z,995.19
2017-12-29T12:11:24.508Z,995.22
2017-12-29T12:12:24.517Z,995.2
2017-12-29T12:13:24.527Z,995.19
2017-12-29T12:14:24.538Z,995.21
2017-12-29T12:15:24.553Z,995.19
2017-12-29T12:16:24.561Z,995.17
2017-12-29T12:17:24.573Z,995.2
2017-12-29T12:18:24.585Z,995.16
2017-12-29T12:19:24.595Z,995.19
2017-12-29T12:20:24.606Z,995.17
2017-12-29T12:21:24.618Z,995.16
2017-12-29T12:22:24.629Z,995.08
2017-12-29T12:23:24.640Z,995.15
2017-12-29T12:24:24.694Z,995.17
2017-12-29T12:25:24.664Z,995.16
2017-12-29T12:26:24.675Z,995.16
2017-12-29T12:27:24.686Z,995.16
2017-12-29T12:28:24.721Z,995.13
2017-12-29T12:29:24.709Z,995.16
2017-12-29T12:30:24.722Z,995.2
2017-12-29T12:31:24.732Z,995.09